Time;durP1;ratioP1;P1;durP2;ratioP2;P2;SDS_P1;SDS_P2;PMS_P1;PMS_P2;Temp;Humidity;BMP_temperature;BMP_pressure;BME280_temperature;BME280_humidity;BME280_pressure;Samples;Min_cycle;Max_cycle;Signal;HPM_P1;HPM_P2
2020/12/18 00:00:35;;;;;;;8.38;5.82;;;;;;;;;;5068602;28;20086;-47
2020/12/18 00:03:01;;;;;;;9.45;6.13;;;;;;;;;;5068503;28;20115;-49
2020/12/18 00:05:32;;;;;;;11.02;6.18;;;;;;;;;;5068110;28;20126;-47
2020/12/18 00:07:58;;;;;;;10.48;6.07;;;;;;;;;;5068037;28;20395;-47
2020/12/18 00:10:26;;;;;;;10.38;6.00;;;;;;;;;;5068077;28;20028;-48
2020/12/18 00:12:52;;;;;;;10.32;6.55;;;;;;;;;;5071300;28;20020;-46
2020/12/18 00:15:19;;;;;;;10.50;6.85;;;;;;;;;;5088349;28;20016;-49
2020/12/18 00:17:45;;;;;;;9.80;6.15;;;;;;;;;;5087937;28;20024;-49
2020/12/18 00:20:11;;;;;;;9.52;6.13;;;;;;;;;;5088270;28;20400;-48
2020/12/18 00:22:37;;;;;;;9.07;6.10;;;;;;;;;;5086551;28;20047;-47
2020/12/18 00:25:03;;;;;;;10.98;6.43;;;;;;;;;;5088037;28;20024;-48
2020/12/18 00:27:29;;;;;;;9.13;6.05;;;;;;;;;;5087636;28;20421;-47
2020/12/18 00:29:55;;;;;;;9.23;6.38;;;;;;;;;;5087836;28;20086;-47
2020/12/18 00:32:21;;;;;;;10.32;6.40;;;;;;;;;;5074261;28;20479;-49
2020/12/18 00:34:47;;;;;;;10.93;7.35;;;;;;;;;;5067320;28;20048;-47
2020/12/18 00:37:13;;;;;;;10.32;6.57;;;;;;;;;;5067581;28;20033;-48
2020/12/18 00:39:39;;;;;;;11.52;6.85;;;;;;;;;;5067249;28;20494;-48
2020/12/18 00:42:05;;;;;;;10.15;6.70;;;;;;;;;;5067398;28;20028;-51
2020/12/18 00:44:31;;;;;;;9.27;6.13;;;;;;;;;;5067879;28;20025;-48
2020/12/18 00:46:57;;;;;;;9.23;6.07;;;;;;;;;;5067191;28;20024;-47
2020/12/18 00:49:23;;;;;;;8.25;5.22;;;;;;;;;;5067253;28;20558;-48
2020/12/18 00:51:53;;;;;;;9.00;5.53;;;;;;;;;;5066308;28;20469;-47
2020/12/18 00:54:19;;;;;;;11.15;6.85;;;;;;;;;;5067534;28;20099;-48
2020/12/18 00:56:45;;;;;;;12.18;7.32;;;;;;;;;;5066826;28;20090;-47
2020/12/18 00:59:11;;;;;;;16.08;9.55;;;;;;;;;;5066088;28;20043;-47
2020/12/18 01:01:38;;;;;;;10.75;6.68;;;;;;;;;;5066908;28;20031;-49
2020/12/18 01:04:05;;;;;;;10.18;6.32;;;;;;;;;;5067652;28;20064;-47
2020/12/18 01:06:31;;;;;;;10.80;6.95;;;;;;;;;;5067297;28;20541;-48
2020/12/18 01:08:57;;;;;;;12.32;8.38;;;;;;;;;;5066052;28;20060;-49
2020/12/18 01:11:23;;;;;;;10.45;6.80;;;;;;;;;;5066546;28;20406;-48
2020/12/18 01:13:49;;;;;;;8.50;5.50;;;;;;;;;;5066647;28;20078;-48
2020/12/18 01:16:15;;;;;;;7.97;5.40;;;;;;;;;;5066516;28;20465;-47
2020/12/18 01:18:41;;;;;;;7.22;4.95;;;;;;;;;;5078117;28;20040;-51
2020/12/18 01:21:08;;;;;;;5.95;4.35;;;;;;;;;;5085761;28;20023;-50
2020/12/18 01:23:34;;;;;;;6.47;4.35;;;;;;;;;;5087739;28;20035;-48
2020/12/18 01:26:00;;;;;;;6.70;4.70;;;;;;;;;;5077113;28;20024;-51
2020/12/18 01:28:26;;;;;;;6.78;4.20;;;;;;;;;;5066350;28;20024;-47
2020/12/18 01:30:52;;;;;;;6.57;4.03;;;;;;;;;;5066240;28;20398;-48
2020/12/18 01:33:18;;;;;;;12.77;7.25;;;;;;;;;;5066456;28;20096;-50
2020/12/18 01:35:44;;;;;;;10.88;7.07;;;;;;;;;;5067791;28;20031;-47
2020/12/18 01:38:10;;;;;;;9.75;5.65;;;;;;;;;;5086357;28;20030;-48
2020/12/18 01:40:36;;;;;;;8.55;5.45;;;;;;;;;;5086507;28;20027;-48
2020/12/18 01:43:03;;;;;;;7.82;5.20;;;;;;;;;;5087450;28;20031;-47
2020/12/18 01:45:29;;;;;;;8.48;4.80;;;;;;;;;;5085874;28;20028;-48
2020/12/18 01:47:55;;;;;;;6.30;4.32;;;;;;;;;;5085721;28;20085;-50
2020/12/18 01:50:21;;;;;;;6.97;4.63;;;;;;;;;;5085758;28;20094;-48
2020/12/18 01:52:47;;;;;;;6.55;4.68;;;;;;;;;;5086059;28;20024;-49
2020/12/18 01:55:14;;;;;;;7.82;4.70;;;;;;;;;;5086511;28;20020;-50
2020/12/18 01:57:41;;;;;;;9.95;5.88;;;;;;;;;;5084250;28;20039;-48
2020/12/18 02:00:08;;;;;;;8.27;5.40;;;;;;;;;;5086476;28;20510;-48
2020/12/18 02:02:34;;;;;;;7.25;4.88;;;;;;;;;;5086031;28;20504;-48
2020/12/18 02:05:00;;;;;;;8.57;4.68;;;;;;;;;;5087109;28;20133;-47
2020/12/18 02:07:29;;;;;;;7.50;4.97;;;;;;;;;;5070499;28;20036;-48
2020/12/18 02:09:58;;;;;;;7.65;4.45;;;;;;;;;;5065926;28;20390;-49
2020/12/18 02:12:24;;;;;;;8.88;4.60;;;;;;;;;;5066250;28;20029;-47
2020/12/18 02:14:51;;;;;;;5.90;4.05;;;;;;;;;;5065711;28;20446;-49
2020/12/18 02:17:17;;;;;;;7.28;4.43;;;;;;;;;;5065636;28;20028;-47
2020/12/18 02:19:44;;;;;;;7.18;4.40;;;;;;;;;;5065762;28;20055;-48
2020/12/18 02:22:11;;;;;;;8.75;5.53;;;;;;;;;;5069297;28;20051;-48
2020/12/18 02:24:39;;;;;;;9.80;6.05;;;;;;;;;;5069472;28;20078;-50
2020/12/18 02:27:05;;;;;;;8.80;6.00;;;;;;;;;;5070346;28;20138;-47
2020/12/18 02:29:31;;;;;;;7.38;4.78;;;;;;;;;;5070689;28;20441;-48
2020/12/18 02:31:57;;;;;;;8.13;4.90;;;;;;;;;;5070120;28;20032;-49
2020/12/18 02:34:24;;;;;;;6.60;4.70;;;;;;;;;;5069836;28;20126;-50
2020/12/18 02:36:50;;;;;;;8.20;4.32;;;;;;;;;;5068698;28;20091;-51
2020/12/18 02:39:17;;;;;;;7.45;4.75;;;;;;;;;;5088422;28;20533;-51
2020/12/18 02:41:43;;;;;;;6.28;4.15;;;;;;;;;;5088944;28;20031;-48
2020/12/18 02:44:09;;;;;;;6.38;4.13;;;;;;;;;;5069430;28;20531;-50
2020/12/18 02:46:35;;;;;;;5.13;3.72;;;;;;;;;;5085214;28;20424;-47
2020/12/18 02:49:01;;;;;;;6.28;4.43;;;;;;;;;;5090568;28;20579;-47
2020/12/18 02:51:27;;;;;;;5.28;3.78;;;;;;;;;;5089635;28;20032;-47
2020/12/18 02:53:53;;;;;;;6.45;4.38;;;;;;;;;;5081633;28;20025;-52
2020/12/18 02:56:26;;;;;;;6.03;4.28;;;;;;;;;;5069399;28;20115;-51
2020/12/18 02:58:52;;;;;;;5.38;3.78;;;;;;;;;;5068365;28;20347;-46
2020/12/18 03:01:19;;;;;;;5.22;3.53;;;;;;;;;;5069514;28;20025;-48
2020/12/18 03:03:45;;;;;;;5.03;3.85;;;;;;;;;;5073875;28;20020;-51
2020/12/18 03:06:11;;;;;;;5.07;3.83;;;;;;;;;;5089661;28;20103;-50
2020/12/18 03:08:37;;;;;;;7.15;4.82;;;;;;;;;;5089125;28;20024;-50
2020/12/18 03:11:04;;;;;;;7.32;3.83;;;;;;;;;;5089266;28;20699;-50
2020/12/18 03:13:30;;;;;;;6.95;4.25;;;;;;;;;;5087073;28;20620;-47
2020/12/18 03:15:56;;;;;;;5.20;4.05;;;;;;;;;;5069049;28;20050;-48
2020/12/18 03:18:25;;;;;;;7.10;4.82;;;;;;;;;;5068124;28;20465;-48
2020/12/18 03:20:51;;;;;;;6.13;4.38;;;;;;;;;;5069050;28;20470;-48
2020/12/18 03:23:17;;;;;;;9.40;5.22;;;;;;;;;;5073501;28;20853;-50
2020/12/18 03:25:43;;;;;;;6.20;4.40;;;;;;;;;;5088955;28;20466;-48
2020/12/18 03:28:10;;;;;;;8.77;5.60;;;;;;;;;;5089046;28;20032;-47
2020/12/18 03:30:36;;;;;;;8.48;6.05;;;;;;;;;;5081500;28;20074;-47
2020/12/18 03:33:03;;;;;;;9.23;6.32;;;;;;;;;;5067583;28;20059;-47
2020/12/18 03:35:29;;;;;;;7.38;5.25;;;;;;;;;;5067806;28;20025;-50
2020/12/18 03:37:55;;;;;;;8.45;5.20;;;;;;;;;;5068745;28;20024;-48
2020/12/18 03:40:22;;;;;;;8.55;5.40;;;;;;;;;;5072537;28;20805;-48
2020/12/18 03:42:48;;;;;;;8.77;5.32;;;;;;;;;;5088818;28;20027;-47
2020/12/18 03:45:14;;;;;;;7.43;4.97;;;;;;;;;;5089427;28;20389;-48
2020/12/18 03:47:40;;;;;;;8.93;5.47;;;;;;;;;;5088280;28;20028;-48
2020/12/18 03:50:06;;;;;;;11.00;6.38;;;;;;;;;;5085696;28;20051;-47
2020/12/18 03:52:33;;;;;;;8.45;5.95;;;;;;;;;;5067962;28;20020;-49
2020/12/18 03:54:59;;;;;;;8.55;5.55;;;;;;;;;;5067716;28;20037;-48
2020/12/18 03:57:25;;;;;;;8.60;4.95;;;;;;;;;;5068410;28;20468;-47
2020/12/18 03:59:51;;;;;;;8.70;5.65;;;;;;;;;;5068060;28;20390;-47
2020/12/18 04:02:17;;;;;;;10.40;6.35;;;;;;;;;;5068235;28;20509;-51
2020/12/18 04:04:43;;;;;;;9.23;6.15;;;;;;;;;;5068828;28;20028;-51
2020/12/18 04:07:13;;;;;;;10.88;6.03;;;;;;;;;;5068299;28;20025;-51
2020/12/18 04:09:40;;;;;;;8.02;5.30;;;;;;;;;;5067544;28;20028;-48
2020/12/18 04:12:06;;;;;;;8.07;5.00;;;;;;;;;;5068280;28;20582;-48
2020/12/18 04:14:32;;;;;;;6.30;4.40;;;;;;;;;;5068074;28;20572;-48
2020/12/18 04:16:58;;;;;;;5.75;4.30;;;;;;;;;;5068013;28;20416;-48
2020/12/18 04:19:24;;;;;;;8.25;4.95;;;;;;;;;;5068200;28;20477;-48
2020/12/18 04:21:50;;;;;;;7.40;5.13;;;;;;;;;;5067872;28;20028;-47
2020/12/18 04:24:16;;;;;;;8.35;4.97;;;;;;;;;;5067904;28;20060;-51
2020/12/18 04:26:42;;;;;;;9.50;5.60;;;;;;;;;;5068234;28;20457;-48
2020/12/18 04:29:08;;;;;;;9.68;5.72;;;;;;;;;;5067816;28;20506;-49
2020/12/18 04:31:34;;;;;;;8.65;5.28;;;;;;;;;;5067413;28;20025;-49
2020/12/18 04:34:00;;;;;;;8.30;5.20;;;;;;;;;;5067614;28;20028;-48
2020/12/18 04:36:28;;;;;;;12.32;5.88;;;;;;;;;;5067164;28;20059;-48
2020/12/18 04:38:54;;;;;;;9.13;6.05;;;;;;;;;;5067369;28;20035;-48
2020/12/18 04:41:20;;;;;;;9.90;6.20;;;;;;;;;;5067620;28;20050;-47
2020/12/18 04:43:46;;;;;;;7.35;5.00;;;;;;;;;;5067228;28;20028;-47
2020/12/18 04:46:15;;;;;;;8.60;5.55;;;;;;;;;;5067863;28;20078;-48
2020/12/18 04:48:43;;;;;;;8.98;5.57;;;;;;;;;;5066829;28;20024;-48
2020/12/18 04:51:11;;;;;;;8.10;5.15;;;;;;;;;;5066313;28;20394;-50
2020/12/18 04:53:37;;;;;;;8.23;5.13;;;;;;;;;;5066896;28;20028;-50
2020/12/18 04:56:10;;;;;;;8.07;4.80;;;;;;;;;;5067208;28;20023;-48
2020/12/18 04:58:38;;;;;;;6.05;4.22;;;;;;;;;;5066384;28;20125;-49
2020/12/18 05:01:04;;;;;;;7.60;5.18;;;;;;;;;;5071492;28;20028;-47
2020/12/18 05:03:32;;;;;;;6.10;4.63;;;;;;;;;;5074393;28;20082;-47
2020/12/18 05:06:06;;;;;;;8.20;5.32;;;;;;;;;;5066978;28;20036;-47
2020/12/18 05:08:32;;;;;;;6.95;4.82;;;;;;;;;;5066572;28;20115;-49
2020/12/18 05:10:58;;;;;;;7.80;5.13;;;;;;;;;;5066720;28;20028;-46
2020/12/18 05:13:25;;;;;;;7.68;5.20;;;;;;;;;;5070649;28;20034;-48
2020/12/18 05:15:52;;;;;;;5.85;4.10;;;;;;;;;;5081578;28;20027;-47
2020/12/18 05:18:21;;;;;;;8.10;4.70;;;;;;;;;;5067106;28;20021;-49
2020/12/18 05:20:48;;;;;;;6.32;4.40;;;;;;;;;;5069316;28;20024;-50
2020/12/18 05:23:14;;;;;;;5.82;4.28;;;;;;;;;;5073087;28;20032;-47
2020/12/18 05:25:40;;;;;;;6.30;4.38;;;;;;;;;;5074674;28;20023;-50
2020/12/18 05:28:06;;;;;;;7.32;4.93;;;;;;;;;;5081888;28;20413;-49
2020/12/18 05:30:33;;;;;;;6.30;4.45;;;;;;;;;;5082315;28;20448;-47
2020/12/18 05:32:59;;;;;;;6.13;4.22;;;;;;;;;;5084632;28;20028;-47
2020/12/18 05:35:25;;;;;;;7.25;4.43;;;;;;;;;;5087067;28;20107;-48
2020/12/18 05:37:52;;;;;;;7.47;4.88;;;;;;;;;;5085441;28;20028;-49
2020/12/18 05:40:18;;;;;;;7.63;5.05;;;;;;;;;;5086813;28;20847;-48
2020/12/18 05:42:45;;;;;;;6.90;4.25;;;;;;;;;;5080684;28;20104;-48
2020/12/18 05:45:11;;;;;;;11.13;7.28;;;;;;;;;;5070128;28;20059;-46
2020/12/18 05:47:52;;;;;;;11.88;6.78;;;;;;;;;;5066372;28;20111;-48
2020/12/18 05:50:18;;;;;;;9.32;5.43;;;;;;;;;;5082288;28;20837;-48
2020/12/18 05:52:53;;;;;;;7.32;5.03;;;;;;;;;;5085160;28;20059;-47
2020/12/18 05:55:20;;;;;;;7.00;4.50;;;;;;;;;;5086070;28;20032;-50
2020/12/18 05:57:46;;;;;;;6.78;5.13;;;;;;;;;;5086277;28;20054;-50
2020/12/18 06:00:12;;;;;;;7.57;4.75;;;;;;;;;;5085148;28;20040;-49
2020/12/18 06:02:39;;;;;;;8.32;5.25;;;;;;;;;;5086145;28;20031;-52
2020/12/18 06:05:05;;;;;;;7.20;4.68;;;;;;;;;;5086552;28;20934;-49
2020/12/18 06:07:36;;;;;;;7.63;5.47;;;;;;;;;;5085993;28;20024;-49
2020/12/18 06:10:02;;;;;;;7.00;4.82;;;;;;;;;;5068511;28;20119;-47
2020/12/18 06:12:29;;;;;;;8.05;5.13;;;;;;;;;;5066020;28;20021;-47
2020/12/18 06:14:55;;;;;;;7.40;5.03;;;;;;;;;;5066627;28;20444;-47
2020/12/18 06:17:26;;;;;;;7.50;4.95;;;;;;;;;;5066254;28;20028;-47
2020/12/18 06:19:56;;;;;;;8.27;5.38;;;;;;;;;;5065712;28;20040;-48
2020/12/18 06:22:22;;;;;;;9.98;5.60;;;;;;;;;;5066169;28;20107;-49
2020/12/18 06:24:48;;;;;;;8.88;6.05;;;;;;;;;;5065775;28;20032;-48
2020/12/18 06:27:18;;;;;;;9.60;5.68;;;;;;;;;;5065961;28;20025;-50
2020/12/18 06:29:45;;;;;;;8.82;5.40;;;;;;;;;;5065298;28;20032;-47
2020/12/18 06:32:21;;;;;;;8.75;5.75;;;;;;;;;;5064144;28;20575;-47
2020/12/18 06:34:47;;;;;;;6.57;4.47;;;;;;;;;;5065226;28;20016;-47
2020/12/18 06:37:25;;;;;;;10.07;4.78;;;;;;;;;;5065888;28;20036;-47
2020/12/18 06:39:51;;;;;;;7.53;5.07;;;;;;;;;;5065462;28;20709;-47
2020/12/18 06:42:21;;;;;;;8.85;5.00;;;;;;;;;;5065577;28;20545;-48
2020/12/18 06:44:48;;;;;;;7.80;4.97;;;;;;;;;;5065464;28;20024;-47
2020/12/18 06:47:16;;;;;;;6.95;4.78;;;;;;;;;;5065517;28;20035;-51
2020/12/18 06:49:57;;;;;;;6.18;4.45;;;;;;;;;;5065179;28;20043;-50
2020/12/18 06:52:43;;;;;;;8.10;5.00;;;;;;;;;;5065916;28;20019;-47
2020/12/18 06:55:35;;;;;;;5.53;3.90;;;;;;;;;;5065718;28;20104;-46
2020/12/18 06:58:07;;;;;;;6.15;4.20;;;;;;;;;;5062707;28;20032;-48
2020/12/18 07:00:43;;;;;;;4.88;3.60;;;;;;;;;;5068899;28;20027;-49
2020/12/18 07:03:10;;;;;;;7.40;4.32;;;;;;;;;;5075912;28;20078;-46
2020/12/18 07:05:36;;;;;;;7.30;4.78;;;;;;;;;;5085855;28;20035;-47
2020/12/18 07:08:04;;;;;;;6.82;4.60;;;;;;;;;;5070607;28;20012;-49
2020/12/18 07:10:37;;;;;;;7.82;4.57;;;;;;;;;;5069058;28;20028;-47
2020/12/18 07:13:03;;;;;;;8.55;4.97;;;;;;;;;;5068789;28;20031;-51
2020/12/18 07:15:52;;;;;;;7.78;4.93;;;;;;;;;;5070571;28;20052;-51
2020/12/18 07:18:26;;;;;;;8.32;4.82;;;;;;;;;;5064814;28;20055;-51
2020/12/18 07:20:53;;;;;;;8.90;5.13;;;;;;;;;;5102669;28;20032;-46
2020/12/18 07:23:20;;;;;;;8.82;5.07;;;;;;;;;;5078132;28;20031;-48
2020/12/18 07:25:47;;;;;;;9.25;5.13;;;;;;;;;;5074677;28;20036;-48
2020/12/18 07:28:13;;;;;;;7.97;5.20;;;;;;;;;;5076544;28;20043;-50
2020/12/18 07:30:40;;;;;;;8.15;4.95;;;;;;;;;;5068638;28;20383;-47
2020/12/18 07:33:07;;;;;;;7.43;4.93;;;;;;;;;;5072134;28;20029;-49
2020/12/18 07:35:36;;;;;;;7.20;4.80;;;;;;;;;;5068789;28;20056;-47
2020/12/18 07:38:03;;;;;;;8.30;5.13;;;;;;;;;;5068094;28;20078;-47
2020/12/18 07:40:29;;;;;;;8.98;5.38;;;;;;;;;;5069615;28;20041;-47
2020/12/18 07:42:55;;;;;;;7.55;4.68;;;;;;;;;;5068865;28;20024;-49
2020/12/18 07:45:21;;;;;;;8.20;5.13;;;;;;;;;;5068566;28;20025;-47
2020/12/18 07:47:47;;;;;;;8.45;5.00;;;;;;;;;;5067880;28;20503;-47
2020/12/18 07:50:13;;;;;;;9.18;5.47;;;;;;;;;;5074043;28;20122;-47
2020/12/18 07:52:39;;;;;;;7.82;4.68;;;;;;;;;;5088072;28;20024;-47
2020/12/18 07:55:05;;;;;;;9.30;6.05;;;;;;;;;;5079727;28;20507;-47
2020/12/18 07:57:33;;;;;;;10.68;6.28;;;;;;;;;;5067952;28;20039;-48
2020/12/18 08:00:09;;;;;;;7.93;5.22;;;;;;;;;;5068239;28;20120;-46
2020/12/18 08:02:35;;;;;;;9.40;6.03;;;;;;;;;;5068122;28;20036;-47
2020/12/18 08:05:01;;;;;;;12.13;7.03;;;;;;;;;;5068401;28;20111;-47
2020/12/18 08:07:31;;;;;;;10.35;5.97;;;;;;;;;;5068327;28;20151;-48
2020/12/18 08:09:58;;;;;;;10.60;6.18;;;;;;;;;;5068744;28;20601;-47
2020/12/18 08:12:25;;;;;;;8.63;5.60;;;;;;;;;;5068787;28;20027;-47
2020/12/18 08:14:51;;;;;;;8.93;5.13;;;;;;;;;;5067771;28;20398;-48
2020/12/18 08:17:23;;;;;;;9.57;5.57;;;;;;;;;;5068219;28;20433;-48
2020/12/18 08:19:52;;;;;;;10.50;5.93;;;;;;;;;;5067402;28;20070;-47
2020/12/18 08:22:20;;;;;;;11.18;6.82;;;;;;;;;;5070959;28;20111;-46
2020/12/18 08:24:47;;;;;;;15.02;8.25;;;;;;;;;;5066860;28;20063;-47
2020/12/18 08:27:22;;;;;;;11.70;7.70;;;;;;;;;;5076801;28;20028;-46
2020/12/18 08:29:48;;;;;;;10.00;6.75;;;;;;;;;;5087019;28;20030;-47
2020/12/18 08:32:45;;;;;;;11.32;6.47;;;;;;;;;;5085783;28;20112;-47
2020/12/18 08:35:17;;;;;;;9.15;6.15;;;;;;;;;;5074530;28;20039;-48
2020/12/18 08:37:44;;;;;;;10.55;5.65;;;;;;;;;;5080386;28;20506;-49
2020/12/18 08:40:26;;;;;;;7.32;5.55;;;;;;;;;;5076988;28;20119;-47
2020/12/18 08:43:01;;;;;;;6.63;4.50;;;;;;;;;;5082215;28;20035;-47
2020/12/18 08:45:28;;;;;;;8.98;5.28;;;;;;;;;;5079542;28;20025;-47
2020/12/18 08:47:54;;;;;;;7.88;4.90;;;;;;;;;;5073482;28;20503;-48
2020/12/18 08:50:20;;;;;;;6.63;4.65;;;;;;;;;;5081252;28;20519;-47
2020/12/18 08:52:47;;;;;;;7.30;4.32;;;;;;;;;;5085350;28;20107;-47
2020/12/18 08:55:14;;;;;;;8.27;5.10;;;;;;;;;;5066809;28;20024;-48
2020/12/18 08:57:40;;;;;;;9.15;4.45;;;;;;;;;;5065616;28;20636;-47
2020/12/18 09:00:07;;;;;;;7.35;4.30;;;;;;;;;;5071951;28;20027;-47
2020/12/18 09:02:35;;;;;;;8.18;4.68;;;;;;;;;;5073002;28;20506;-47
2020/12/18 09:05:27;;;;;;;7.75;5.30;;;;;;;;;;5064625;28;20094;-46
2020/12/18 09:07:53;;;;;;;7.25;3.95;;;;;;;;;;5076551;28;20123;-48
2020/12/18 09:10:33;;;;;;;8.15;4.30;;;;;;;;;;5075076;28;20032;-47
2020/12/18 09:13:10;;;;;;;6.35;4.10;;;;;;;;;;5065797;28;20140;-48
2020/12/18 09:15:36;;;;;;;6.10;4.15;;;;;;;;;;5065821;28;20444;-47
2020/12/18 09:18:02;;;;;;;7.63;4.15;;;;;;;;;;5065675;28;20028;-47
2020/12/18 09:20:29;;;;;;;6.70;4.43;;;;;;;;;;5076001;28;20522;-48
2020/12/18 09:22:56;;;;;;;6.93;4.43;;;;;;;;;;5082592;28;20535;-50
2020/12/18 09:25:22;;;;;;;4.95;3.72;;;;;;;;;;5075289;28;20061;-48
2020/12/18 09:27:52;;;;;;;6.65;3.88;;;;;;;;;;5085745;28;20028;-46
2020/12/18 09:30:22;;;;;;;6.95;4.18;;;;;;;;;;5072329;28;20028;-48
2020/12/18 09:33:06;;;;;;;6.53;4.43;;;;;;;;;;5065583;28;20264;-48
2020/12/18 09:35:33;;;;;;;6.38;4.15;;;;;;;;;;5067882;28;20036;-48
2020/12/18 09:37:59;;;;;;;6.68;4.28;;;;;;;;;;5071659;28;20039;-51
2020/12/18 09:40:25;;;;;;;6.22;3.97;;;;;;;;;;5064626;28;20037;-49
2020/12/18 09:42:51;;;;;;;4.85;3.58;;;;;;;;;;5063628;28;20036;-52
2020/12/18 09:45:17;;;;;;;4.35;3.40;;;;;;;;;;5066721;28;20020;-50
2020/12/18 09:47:43;;;;;;;4.55;3.38;;;;;;;;;;5082481;28;20502;-48
2020/12/18 09:50:10;;;;;;;6.28;3.67;;;;;;;;;;5077002;28;20031;-50
2020/12/18 09:52:36;;;;;;;7.30;3.50;;;;;;;;;;5084956;28;20582;-52
2020/12/18 09:55:02;;;;;;;4.20;3.00;;;;;;;;;;5067086;28;20055;-51
2020/12/18 09:57:28;;;;;;;5.15;3.45;;;;;;;;;;5065445;28;20438;-47
2020/12/18 09:59:54;;;;;;;5.82;4.10;;;;;;;;;;5065538;28;20035;-48
2020/12/18 10:02:20;;;;;;;5.63;3.95;;;;;;;;;;5065143;28;20028;-49
2020/12/18 10:04:46;;;;;;;4.35;3.35;;;;;;;;;;5064718;28;20029;-51
2020/12/18 10:07:12;;;;;;;5.82;3.90;;;;;;;;;;5082597;28;20025;-51
2020/12/18 10:09:38;;;;;;;5.10;3.47;;;;;;;;;;5064989;28;20031;-50
2020/12/18 10:12:04;;;;;;;4.18;3.20;;;;;;;;;;5064746;28;20025;-49
2020/12/18 10:14:30;;;;;;;6.43;4.25;;;;;;;;;;5066219;28;20650;-47
2020/12/18 10:16:56;;;;;;;5.82;4.00;;;;;;;;;;5064350;28;20031;-47
2020/12/18 10:19:22;;;;;;;5.05;3.58;;;;;;;;;;5068917;28;20387;-46
2020/12/18 10:21:48;;;;;;;5.15;3.63;;;;;;;;;;5066985;28;20066;-46
2020/12/18 10:24:14;;;;;;;5.38;3.50;;;;;;;;;;5068978;28;20055;-48
2020/12/18 10:26:40;;;;;;;4.78;3.50;;;;;;;;;;5073670;28;20033;-48
2020/12/18 10:29:06;;;;;;;4.90;3.40;;;;;;;;;;5077105;28;20028;-50
2020/12/18 10:31:32;;;;;;;5.20;3.28;;;;;;;;;;5074872;28;20841;-49
2020/12/18 10:33:58;;;;;;;7.07;4.03;;;;;;;;;;5062721;28;20024;-47
2020/12/18 10:36:24;;;;;;;5.18;3.50;;;;;;;;;;5063073;28;20029;-51
2020/12/18 10:38:50;;;;;;;4.68;3.60;;;;;;;;;;5062599;28;20027;-51
2020/12/18 10:41:16;;;;;;;5.05;3.55;;;;;;;;;;5061668;28;20422;-47
2020/12/18 10:43:42;;;;;;;4.88;3.22;;;;;;;;;;5070823;28;20030;-48
2020/12/18 10:46:11;;;;;;;4.60;3.22;;;;;;;;;;5071564;28;20352;-50
2020/12/18 10:48:37;;;;;;;5.32;3.47;;;;;;;;;;5066157;28;20438;-50
2020/12/18 10:51:03;;;;;;;4.93;3.08;;;;;;;;;;5066515;28;20028;-49
2020/12/18 10:53:29;;;;;;;3.17;2.55;;;;;;;;;;5066442;28;20071;-46
2020/12/18 10:55:55;;;;;;;5.05;2.72;;;;;;;;;;5068814;28;20088;-48
2020/12/18 10:58:21;;;;;;;4.65;2.97;;;;;;;;;;5066370;28;20024;-46
2020/12/18 11:00:47;;;;;;;5.10;3.33;;;;;;;;;;5066090;28;20693;-47
2020/12/18 11:03:13;;;;;;;3.75;2.90;;;;;;;;;;5066405;28;20514;-47
2020/12/18 11:05:39;;;;;;;3.30;2.60;;;;;;;;;;5070174;28;20032;-47
2020/12/18 11:08:05;;;;;;;2.92;2.17;;;;;;;;;;5086515;28;20251;-51
2020/12/18 11:10:31;;;;;;;3.88;2.60;;;;;;;;;;5078684;28;20039;-48
2020/12/18 11:12:57;;;;;;;3.38;2.53;;;;;;;;;;5066922;28;20102;-47
2020/12/18 11:15:23;;;;;;;3.88;2.65;;;;;;;;;;5071300;28;20125;-48
2020/12/18 11:17:49;;;;;;;4.10;2.75;;;;;;;;;;5086626;28;20027;-49
2020/12/18 11:20:15;;;;;;;3.55;2.33;;;;;;;;;;5087106;28;20032;-48
2020/12/18 11:22:42;;;;;;;4.20;2.50;;;;;;;;;;5079552;28;20121;-47
2020/12/18 11:25:09;;;;;;;4.05;2.38;;;;;;;;;;5070577;28;20028;-47
2020/12/18 11:27:35;;;;;;;3.60;2.75;;;;;;;;;;5086132;28;20031;-49
2020/12/18 11:30:01;;;;;;;4.47;2.83;;;;;;;;;;5087383;28;20444;-48
2020/12/18 11:32:27;;;;;;;4.32;2.88;;;;;;;;;;5087681;28;20020;-47
2020/12/18 11:34:53;;;;;;;5.00;2.83;;;;;;;;;;5087504;28;20031;-47
2020/12/18 11:37:21;;;;;;;4.13;3.00;;;;;;;;;;5085241;28;20417;-47
2020/12/18 11:39:47;;;;;;;4.78;2.90;;;;;;;;;;5086381;28;20554;-50
2020/12/18 11:42:14;;;;;;;4.93;3.20;;;;;;;;;;5090477;28;20035;-47
2020/12/18 11:44:40;;;;;;;4.15;2.90;;;;;;;;;;5086174;28;20031;-47
2020/12/18 11:47:06;;;;;;;3.03;2.20;;;;;;;;;;5086373;28;20039;-48
2020/12/18 11:49:32;;;;;;;3.90;2.13;;;;;;;;;;5079114;28;20027;-50
2020/12/18 11:51:59;;;;;;;3.67;2.60;;;;;;;;;;5073161;28;20032;-48
2020/12/18 11:54:25;;;;;;;4.18;3.25;;;;;;;;;;5065828;28;20236;-47
2020/12/18 11:56:51;;;;;;;3.42;2.80;;;;;;;;;;5065815;28;20032;-48
2020/12/18 11:59:18;;;;;;;3.85;2.58;;;;;;;;;;5065731;28;20058;-48
2020/12/18 12:01:44;;;;;;;3.25;2.17;;;;;;;;;;5067011;28;20025;-48
2020/12/18 12:04:10;;;;;;;3.40;2.65;;;;;;;;;;5066293;28;20092;-47
2020/12/18 12:06:37;;;;;;;3.00;2.38;;;;;;;;;;5077030;28;20024;-51
2020/12/18 12:09:03;;;;;;;4.97;3.35;;;;;;;;;;5066051;28;20024;-51
2020/12/18 12:11:39;;;;;;;5.07;2.95;;;;;;;;;;5081231;28;20047;-51
2020/12/18 12:14:06;;;;;;;4.20;3.00;;;;;;;;;;5085135;28;20890;-51
2020/12/18 12:16:35;;;;;;;5.00;3.28;;;;;;;;;;5070874;28;20434;-49
2020/12/18 12:19:02;;;;;;;3.25;2.85;;;;;;;;;;5066005;28;20028;-47
2020/12/18 12:21:35;;;;;;;4.88;3.65;;;;;;;;;;5071471;28;20050;-47
2020/12/18 12:24:01;;;;;;;4.25;3.10;;;;;;;;;;5083026;28;20042;-51
2020/12/18 12:26:28;;;;;;;3.95;2.70;;;;;;;;;;5074269;28;20423;-50
2020/12/18 12:28:56;;;;;;;4.72;2.67;;;;;;;;;;5065773;28;20025;-50
2020/12/18 12:31:22;;;;;;;4.07;2.70;;;;;;;;;;5064623;28;20324;-50
2020/12/18 12:33:49;;;;;;;3.53;2.38;;;;;;;;;;5071595;28;20162;-51
2020/12/18 12:36:22;;;;;;;3.33;2.45;;;;;;;;;;5085645;28;20034;-48
2020/12/18 12:38:48;;;;;;;5.60;3.15;;;;;;;;;;5085636;28;20679;-51
2020/12/18 12:41:16;;;;;;;3.30;2.28;;;;;;;;;;5073168;28;20141;-51
2020/12/18 12:43:42;;;;;;;3.25;2.30;;;;;;;;;;5065771;28;20035;-48
2020/12/18 12:46:09;;;;;;;3.13;1.77;;;;;;;;;;5071254;28;20140;-51
2020/12/18 12:48:37;;;;;;;3.60;2.67;;;;;;;;;;5084874;28;20469;-51
2020/12/18 12:51:04;;;;;;;3.03;2.20;;;;;;;;;;5066991;28;20063;-50
2020/12/18 12:53:30;;;;;;;3.72;2.45;;;;;;;;;;5079688;28;20020;-51
2020/12/18 12:55:56;;;;;;;3.75;2.55;;;;;;;;;;5065435;28;20162;-52
2020/12/18 12:58:22;;;;;;;3.75;2.25;;;;;;;;;;5067097;28;20027;-50
2020/12/18 13:00:48;;;;;;;4.15;2.30;;;;;;;;;;5065350;28;20204;-52
2020/12/18 13:03:14;;;;;;;4.82;3.30;;;;;;;;;;5085232;28;20031;-49
2020/12/18 13:05:44;;;;;;;7.03;4.63;;;;;;;;;;5066228;28;20036;-48
2020/12/18 13:08:11;;;;;;;5.03;3.60;;;;;;;;;;5064508;28;20025;-48
2020/12/18 13:10:40;;;;;;;5.43;3.60;;;;;;;;;;5064340;28;20115;-49
2020/12/18 13:13:07;;;;;;;4.78;3.17;;;;;;;;;;5079197;28;20415;-48
2020/12/18 13:15:34;;;;;;;3.63;2.40;;;;;;;;;;5078838;28;20016;-51
2020/12/18 13:18:00;;;;;;;2.85;1.77;;;;;;;;;;5066940;28;20035;-51
2020/12/18 13:20:26;;;;;;;2.20;1.80;;;;;;;;;;5077994;28;20033;-50
2020/12/18 13:22:52;;;;;;;2.33;1.25;;;;;;;;;;5078734;28;20030;-49
2020/12/18 13:25:19;;;;;;;2.75;1.40;;;;;;;;;;5083895;28;20032;-50
2020/12/18 13:27:45;;;;;;;1.77;1.30;;;;;;;;;;5063592;28;20043;-48
2020/12/18 13:30:11;;;;;;;1.60;1.30;;;;;;;;;;5064687;28;20051;-48
2020/12/18 13:32:37;;;;;;;1.60;1.27;;;;;;;;;;5063015;28;20040;-48
2020/12/18 13:35:04;;;;;;;1.85;1.20;;;;;;;;;;5065165;28;20107;-48
2020/12/18 13:37:30;;;;;;;1.50;1.40;;;;;;;;;;5068382;28;20054;-51
2020/12/18 13:39:56;;;;;;;1.67;1.20;;;;;;;;;;5069998;28;20056;-47
2020/12/18 13:42:22;;;;;;;2.17;1.35;;;;;;;;;;5066557;28;20029;-51
2020/12/18 13:44:49;;;;;;;1.83;1.27;;;;;;;;;;5066159;28;20111;-49
2020/12/18 13:47:15;;;;;;;2.25;1.40;;;;;;;;;;5064807;28;20380;-50
2020/12/18 13:49:42;;;;;;;2.75;1.50;;;;;;;;;;5064494;28;20055;-49
2020/12/18 13:52:08;;;;;;;2.20;1.45;;;;;;;;;;5064428;28;20031;-48
2020/12/18 13:54:34;;;;;;;2.33;1.58;;;;;;;;;;5064833;28;20020;-48
2020/12/18 13:57:00;;;;;;;1.35;1.10;;;;;;;;;;5064346;28;20549;-51
2020/12/18 13:59:27;;;;;;;2.28;1.50;;;;;;;;;;5065114;28;20491;-50
2020/12/18 14:02:02;;;;;;;1.70;1.50;;;;;;;;;;5065068;28;20551;-50
2020/12/18 14:04:28;;;;;;;2.45;1.48;;;;;;;;;;5064793;28;20885;-47
2020/12/18 14:06:58;;;;;;;1.33;1.20;;;;;;;;;;5064980;28;20024;-50
2020/12/18 14:09:24;;;;;;;1.65;1.20;;;;;;;;;;5065256;28;20445;-49
2020/12/18 14:11:50;;;;;;;1.30;1.17;;;;;;;;;;5064364;28;20033;-51
2020/12/18 14:14:16;;;;;;;2.42;1.90;;;;;;;;;;5064463;28;20103;-51
2020/12/18 14:16:42;;;;;;;2.15;1.40;;;;;;;;;;5063811;28;20031;-51
2020/12/18 14:19:08;;;;;;;1.40;1.30;;;;;;;;;;5064531;28;20032;-51
2020/12/18 14:21:36;;;;;;;2.33;1.38;;;;;;;;;;5077353;28;20474;-50
2020/12/18 14:24:02;;;;;;;2.35;1.40;;;;;;;;;;5076262;28;20033;-49
2020/12/18 14:26:28;;;;;;;1.65;1.20;;;;;;;;;;5071944;28;20020;-49
2020/12/18 14:28:54;;;;;;;2.20;1.60;;;;;;;;;;5072215;28;20379;-48
2020/12/18 14:31:21;;;;;;;2.15;1.23;;;;;;;;;;5074670;28;20016;-51
2020/12/18 14:33:47;;;;;;;1.40;1.15;;;;;;;;;;5085660;28;20486;-50
2020/12/18 14:36:13;;;;;;;1.77;1.30;;;;;;;;;;5076105;28;20478;-49
2020/12/18 14:38:39;;;;;;;2.33;1.50;;;;;;;;;;5077918;28;20051;-51
2020/12/18 14:41:05;;;;;;;2.38;1.73;;;;;;;;;;5073937;28;20032;-48